sensor_id;sensor_type;location;lat;lon;timestamp;temperature;humidity
40758;DHT22;26462;47.384;19.218;2022-08-05T00:01:30;24.00;64.80
40758;DHT22;26462;47.384;19.218;2022-08-05T00:04:15;23.90;65.10
40758;DHT22;26462;47.384;19.218;2022-08-05T00:06:43;23.90;65.20
40758;DHT22;26462;47.384;19.218;2022-08-05T00:09:13;23.80;64.60
40758;DHT22;26462;47.384;19.218;2022-08-05T00:11:44;23.80;64.40
40758;DHT22;26462;47.384;19.218;2022-08-05T00:14:21;23.70;64.20
40758;DHT22;26462;47.384;19.218;2022-08-05T00:16:55;23.80;64.60
40758;DHT22;26462;47.384;19.218;2022-08-05T00:19:23;23.70;64.20
40758;DHT22;26462;47.384;19.218;2022-08-05T00:22:00;23.70;64.60
40758;DHT22;26462;47.384;19.218;2022-08-05T00:24:27;23.60;64.60
40758;DHT22;26462;47.384;19.218;2022-08-05T00:26:58;23.70;64.50
40758;DHT22;26462;47.384;19.218;2022-08-05T00:29:26;23.60;64.60
40758;DHT22;26462;47.384;19.218;2022-08-05T00:32:04;23.60;65.30
40758;DHT22;26462;47.384;19.218;2022-08-05T00:34:44;23.60;65.40
40758;DHT22;26462;47.384;19.218;2022-08-05T00:37:31;23.60;65.00
40758;DHT22;26462;47.384;19.218;2022-08-05T00:40:21;23.60;64.60
40758;DHT22;26462;47.384;19.218;2022-08-05T00:42:56;23.60;65.50
40758;DHT22;26462;47.384;19.218;2022-08-05T00:45:24;23.50;65.00
40758;DHT22;26462;47.384;19.218;2022-08-05T00:48:06;23.50;65.00
40758;DHT22;26462;47.384;19.218;2022-08-05T00:50:37;23.50;66.00
40758;DHT22;26462;47.384;19.218;2022-08-05T00:53:07;23.50;65.80
40758;DHT22;26462;47.384;19.218;2022-08-05T00:55:54;23.40;66.70
40758;DHT22;26462;47.384;19.218;2022-08-05T00:58:22;23.40;66.00
40758;DHT22;26462;47.384;19.218;2022-08-05T01:00:53;23.40;67.00
40758;DHT22;26462;47.384;19.218;2022-08-05T01:03:21;23.40;67.30
40758;DHT22;26462;47.384;19.218;2022-08-05T01:05:57;23.30;65.80
40758;DHT22;26462;47.384;19.218;2022-08-05T01:08:24;23.30;65.80
40758;DHT22;26462;47.384;19.218;2022-08-05T01:11:21;23.30;66.10
40758;DHT22;26462;47.384;19.218;2022-08-05T01:14:10;23.30;66.00
40758;DHT22;26462;47.384;19.218;2022-08-05T01:16:59;23.20;66.40
40758;DHT22;26462;47.384;19.218;2022-08-05T01:19:40;23.20;65.90
40758;DHT22;26462;47.384;19.218;2022-08-05T01:22:31;23.20;66.60
40758;DHT22;26462;47.384;19.218;2022-08-05T01:33:50;23.10;67.80
40758;DHT22;26462;47.384;19.218;2022-08-05T01:36:24;23.00;66.50
40758;DHT22;26462;47.384;19.218;2022-08-05T01:38:55;23.00;68.00
40758;DHT22;26462;47.384;19.218;2022-08-05T01:41:31;23.00;67.50
40758;DHT22;26462;47.384;19.218;2022-08-05T01:44:00;22.90;67.80
40758;DHT22;26462;47.384;19.218;2022-08-05T01:46:29;22.90;68.20
40758;DHT22;26462;47.384;19.218;2022-08-05T01:49:13;22.90;67.90
40758;DHT22;26462;47.384;19.218;2022-08-05T01:52:00;22.90;68.70
40758;DHT22;26462;47.384;19.218;2022-08-05T01:54:47;22.80;68.20
40758;DHT22;26462;47.384;19.218;2022-08-05T01:57:24;22.80;68.80
40758;DHT22;26462;47.384;19.218;2022-08-05T02:00:13;22.80;69.50
40758;DHT22;26462;47.384;19.218;2022-08-05T02:02:47;22.70;70.10
40758;DHT22;26462;47.384;19.218;2022-08-05T02:05:26;22.70;70.10
40758;DHT22;26462;47.384;19.218;2022-08-05T02:07:58;22.70;70.60
40758;DHT22;26462;47.384;19.218;2022-08-05T02:10:35;22.60;70.70
40758;DHT22;26462;47.384;19.218;2022-08-05T02:16:29;22.60;71.00
40758;DHT22;26462;47.384;19.218;2022-08-05T02:19:29;22.50;72.10
40758;DHT22;26462;47.384;19.218;2022-08-05T02:22:15;22.50;72.60
40758;DHT22;26462;47.384;19.218;2022-08-05T02:24:57;22.50;72.70
40758;DHT22;26462;47.384;19.218;2022-08-05T02:27:29;22.50;73.30
40758;DHT22;26462;47.384;19.218;2022-08-05T02:30:20;22.50;72.60
40758;DHT22;26462;47.384;19.218;2022-08-05T02:32:54;22.40;72.90
40758;DHT22;26462;47.384;19.218;2022-08-05T02:35:25;22.40;72.10
40758;DHT22;26462;47.384;19.218;2022-08-05T02:37:59;22.40;72.80
40758;DHT22;26462;47.384;19.218;2022-08-05T02:40:29;22.30;72.70
40758;DHT22;26462;47.384;19.218;2022-08-05T02:42:58;22.30;72.70
40758;DHT22;26462;47.384;19.218;2022-08-05T02:45:26;22.30;73.30
40758;DHT22;26462;47.384;19.218;2022-08-05T02:48:15;22.30;72.60
40758;DHT22;26462;47.384;19.218;2022-08-05T02:50:43;22.20;73.50
40758;DHT22;26462;47.384;19.218;2022-08-05T02:53:14;22.30;72.40
40758;DHT22;26462;47.384;19.218;2022-08-05T02:55:46;22.20;73.50
40758;DHT22;26462;47.384;19.218;2022-08-05T02:58:25;22.30;71.90
40758;DHT22;26462;47.384;19.218;2022-08-05T03:00:58;22.20;72.70
40758;DHT22;26462;47.384;19.218;2022-08-05T03:03:29;22.20;72.90
40758;DHT22;26462;47.384;19.218;2022-08-05T03:06:16;22.20;73.70
40758;DHT22;26462;47.384;19.218;2022-08-05T03:09:06;22.20;73.70
40758;DHT22;26462;47.384;19.218;2022-08-05T03:11:33;22.10;72.60
40758;DHT22;26462;47.384;19.218;2022-08-05T03:14:21;22.10;72.70
40758;DHT22;26462;47.384;19.218;2022-08-05T03:16:48;22.20;72.80
40758;DHT22;26462;47.384;19.218;2022-08-05T03:19:19;22.10;72.80
40758;DHT22;26462;47.384;19.218;2022-08-05T03:22:00;22.10;74.40
40758;DHT22;26462;47.384;19.218;2022-08-05T03:24:30;22.10;74.00
40758;DHT22;26462;47.384;19.218;2022-08-05T03:26:59;22.10;74.00
40758;DHT22;26462;47.384;19.218;2022-08-05T03:29:27;22.10;73.70
40758;DHT22;26462;47.384;19.218;2022-08-05T03:32:11;22.00;74.10
40758;DHT22;26462;47.384;19.218;2022-08-05T03:34:43;22.00;74.60
40758;DHT22;26462;47.384;19.218;2022-08-05T03:37:17;22.00;74.00
40758;DHT22;26462;47.384;19.218;2022-08-05T03:39:55;21.90;72.50
40758;DHT22;26462;47.384;19.218;2022-08-05T03:42:25;21.90;73.10
40758;DHT22;26462;47.384;19.218;2022-08-05T03:44:55;22.00;73.20
40758;DHT22;26462;47.384;19.218;2022-08-05T03:47:22;21.90;72.00
40758;DHT22;26462;47.384;19.218;2022-08-05T03:49:50;21.90;72.20
40758;DHT22;26462;47.384;19.218;2022-08-05T03:52:28;21.90;72.20
40758;DHT22;26462;47.384;19.218;2022-08-05T03:55:23;22.00;72.10
40758;DHT22;26462;47.384;19.218;2022-08-05T03:58:14;22.00;71.90
40758;DHT22;26462;47.384;19.218;2022-08-05T04:00:43;22.00;71.50
40758;DHT22;26462;47.384;19.218;2022-08-05T04:03:17;22.00;71.40
40758;DHT22;26462;47.384;19.218;2022-08-05T04:05:56;22.00;71.60
40758;DHT22;26462;47.384;19.218;2022-08-05T04:08:26;21.90;71.40
40758;DHT22;26462;47.384;19.218;2022-08-05T04:11:03;22.00;71.50
40758;DHT22;26462;47.384;19.218;2022-08-05T04:13:39;22.00;71.50
40758;DHT22;26462;47.384;19.218;2022-08-05T04:16:17;22.00;71.70
40758;DHT22;26462;47.384;19.218;2022-08-05T04:18:57;22.00;72.60
40758;DHT22;26462;47.384;19.218;2022-08-05T04:21:26;22.10;73.00
40758;DHT22;26462;47.384;19.218;2022-08-05T04:24:14;22.10;72.80
40758;DHT22;26462;47.384;19.218;2022-08-05T04:26:49;22.10;72.10
40758;DHT22;26462;47.384;19.218;2022-08-05T04:29:17;22.20;73.40
40758;DHT22;26462;47.384;19.218;2022-08-05T04:31:45;22.20;72.70
40758;DHT22;26462;47.384;19.218;2022-08-05T04:34:15;22.20;72.60
40758;DHT22;26462;47.384;19.218;2022-08-05T04:36:59;22.20;72.10
40758;DHT22;26462;47.384;19.218;2022-08-05T04:39:29;22.20;71.40
40758;DHT22;26462;47.384;19.218;2022-08-05T04:41:58;22.20;71.40
40758;DHT22;26462;47.384;19.218;2022-08-05T04:44:25;22.30;73.00
40758;DHT22;26462;47.384;19.218;2022-08-05T04:47:00;22.30;73.40
40758;DHT22;26462;47.384;19.218;2022-08-05T04:49:37;22.40;71.50
40758;DHT22;26462;47.384;19.218;2022-08-05T04:52:25;22.40;71.00
40758;DHT22;26462;47.384;19.218;2022-08-05T04:54:54;22.40;70.70
40758;DHT22;26462;47.384;19.218;2022-08-05T04:57:24;22.50;71.40
40758;DHT22;26462;47.384;19.218;2022-08-05T04:59:55;22.60;71.00
40758;DHT22;26462;47.384;19.218;2022-08-05T05:02:25;22.60;70.30
40758;DHT22;26462;47.384;19.218;2022-08-05T05:05:07;22.60;70.00
40758;DHT22;26462;47.384;19.218;2022-08-05T05:07:57;22.60;69.80
40758;DHT22;26462;47.384;19.218;2022-08-05T05:10:29;22.80;70.00
40758;DHT22;26462;47.384;19.218;2022-08-05T05:12:59;22.80;69.30
40758;DHT22;26462;47.384;19.218;2022-08-05T05:15:30;22.90;69.70
40758;DHT22;26462;47.384;19.218;2022-08-05T05:18:17;22.90;68.90
40758;DHT22;26462;47.384;19.218;2022-08-05T05:21:00;23.10;68.80
40758;DHT22;26462;47.384;19.218;2022-08-05T05:23:29;23.20;68.20
40758;DHT22;26462;47.384;19.218;2022-08-05T05:26:16;23.30;67.70
40758;DHT22;26462;47.384;19.218;2022-08-05T05:28:44;23.40;67.80
40758;DHT22;26462;47.384;19.218;2022-08-05T05:31:11;23.50;66.50
40758;DHT22;26462;47.384;19.218;2022-08-05T05:33:39;23.60;66.60
40758;DHT22;26462;47.384;19.218;2022-08-05T05:36:25;23.70;66.10
40758;DHT22;26462;47.384;19.218;2022-08-05T05:38:54;23.90;64.80
40758;DHT22;26462;47.384;19.218;2022-08-05T05:41:23;24.00;64.70
40758;DHT22;26462;47.384;19.218;2022-08-05T05:44:07;24.10;64.50
40758;DHT22;26462;47.384;19.218;2022-08-05T05:46:54;24.20;63.00
40758;DHT22;26462;47.384;19.218;2022-08-05T05:49:23;24.40;63.30
40758;DHT22;26462;47.384;19.218;2022-08-05T05:51:52;24.60;63.50
40758;DHT22;26462;47.384;19.218;2022-08-05T05:54:20;24.70;62.90
40758;DHT22;26462;47.384;19.218;2022-08-05T05:57:07;24.80;63.20
40758;DHT22;26462;47.384;19.218;2022-08-05T05:59:45;25.00;62.00
40758;DHT22;26462;47.384;19.218;2022-08-05T06:02:14;25.20;62.10
40758;DHT22;26462;47.384;19.218;2022-08-05T06:04:42;25.30;61.00
40758;DHT22;26462;47.384;19.218;2022-08-05T06:07:15;25.40;61.40
40758;DHT22;26462;47.384;19.218;2022-08-05T06:09:48;25.60;61.40
40758;DHT22;26462;47.384;19.218;2022-08-05T06:12:33;25.80;60.70
40758;DHT22;26462;47.384;19.218;2022-08-05T06:15:08;25.90;60.80
40758;DHT22;26462;47.384;19.218;2022-08-05T06:17:49;26.00;60.30
40758;DHT22;26462;47.384;19.218;2022-08-05T06:20:19;26.20;60.50
40758;DHT22;26462;47.384;19.218;2022-08-05T06:22:47;26.30;59.60
40758;DHT22;26462;47.384;19.218;2022-08-05T06:25:16;26.40;59.20
40758;DHT22;26462;47.384;19.218;2022-08-05T06:28:04;26.60;59.40
40758;DHT22;26462;47.384;19.218;2022-08-05T06:30:46;26.60;57.50
40758;DHT22;26462;47.384;19.218;2022-08-05T06:33:14;26.90;58.80
40758;DHT22;26462;47.384;19.218;2022-08-05T06:35:45;27.00;58.10
40758;DHT22;26462;47.384;19.218;2022-08-05T06:38:32;27.20;57.90
40758;DHT22;26462;47.384;19.218;2022-08-05T06:41:03;27.30;56.10
40758;DHT22;26462;47.384;19.218;2022-08-05T06:43:34;27.40;55.90
40758;DHT22;26462;47.384;19.218;2022-08-05T06:46:21;27.50;55.50
40758;DHT22;26462;47.384;19.218;2022-08-05T06:48:56;27.60;53.90
40758;DHT22;26462;47.384;19.218;2022-08-05T06:51:27;27.70;54.80
40758;DHT22;26462;47.384;19.218;2022-08-05T06:54:01;27.90;55.40
40758;DHT22;26462;47.384;19.218;2022-08-05T06:56:31;28.10;54.80
40758;DHT22;26462;47.384;19.218;2022-08-05T06:59:02;28.30;55.70
40758;DHT22;26462;47.384;19.218;2022-08-05T07:01:35;28.40;55.70
40758;DHT22;26462;47.384;19.218;2022-08-05T07:04:08;28.40;53.80
40758;DHT22;26462;47.384;19.218;2022-08-05T07:06:36;28.50;53.30
40758;DHT22;26462;47.384;19.218;2022-08-05T07:09:03;28.60;52.40
40758;DHT22;26462;47.384;19.218;2022-08-05T07:11:34;28.70;52.90
40758;DHT22;26462;47.384;19.218;2022-08-05T07:14:06;28.80;52.30
40758;DHT22;26462;47.384;19.218;2022-08-05T07:16:57;28.90;53.70
40758;DHT22;26462;47.384;19.218;2022-08-05T07:19:48;29.00;53.00
40758;DHT22;26462;47.384;19.218;2022-08-05T07:22:37;29.10;52.20
40758;DHT22;26462;47.384;19.218;2022-08-05T07:25:05;29.30;53.40
40758;DHT22;26462;47.384;19.218;2022-08-05T07:27:54;29.40;51.50
40758;DHT22;26462;47.384;19.218;2022-08-05T07:30:32;29.50;52.00
40758;DHT22;26462;47.384;19.218;2022-08-05T07:33:07;29.50;52.30
40758;DHT22;26462;47.384;19.218;2022-08-05T07:35:42;29.60;52.60
40758;DHT22;26462;47.384;19.218;2022-08-05T07:38:29;29.70;50.50
40758;DHT22;26462;47.384;19.218;2022-08-05T07:41:06;29.90;51.50
40758;DHT22;26462;47.384;19.218;2022-08-05T07:43:55;30.00;50.30
40758;DHT22;26462;47.384;19.218;2022-08-05T07:46:27;29.90;50.50
40758;DHT22;26462;47.384;19.218;2022-08-05T07:48:59;30.00;50.30
40758;DHT22;26462;47.384;19.218;2022-08-05T07:51:33;30.10;49.90
40758;DHT22;26462;47.384;19.218;2022-08-05T07:54:06;30.20;49.40
40758;DHT22;26462;47.384;19.218;2022-08-05T07:56:35;30.20;48.60
40758;DHT22;26462;47.384;19.218;2022-08-05T07:59:22;30.30;49.90
40758;DHT22;26462;47.384;19.218;2022-08-05T08:02:10;30.40;49.20
40758;DHT22;26462;47.384;19.218;2022-08-05T08:04:43;30.40;49.10
40758;DHT22;26462;47.384;19.218;2022-08-05T08:07:12;30.50;49.60
40758;DHT22;26462;47.384;19.218;2022-08-05T08:09:41;30.60;49.00
40758;DHT22;26462;47.384;19.218;2022-08-05T08:12:09;30.70;49.20
40758;DHT22;26462;47.384;19.218;2022-08-05T08:14:56;30.80;47.80
40758;DHT22;26462;47.384;19.218;2022-08-05T08:17:30;30.90;48.80
40758;DHT22;26462;47.384;19.218;2022-08-05T08:19:58;30.90;47.70
40758;DHT22;26462;47.384;19.218;2022-08-05T08:22:56;30.90;49.00
40758;DHT22;26462;47.384;19.218;2022-08-05T08:25:29;31.00;50.20
40758;DHT22;26462;47.384;19.218;2022-08-05T08:28:17;31.00;49.10
40758;DHT22;26462;47.384;19.218;2022-08-05T08:31:07;31.20;49.00
40758;DHT22;26462;47.384;19.218;2022-08-05T08:33:34;31.20;48.50
40758;DHT22;26462;47.384;19.218;2022-08-05T08:36:07;31.20;48.30
40758;DHT22;26462;47.384;19.218;2022-08-05T08:38:54;31.30;49.10
40758;DHT22;26462;47.384;19.218;2022-08-05T08:41:25;31.40;48.50
40758;DHT22;26462;47.384;19.218;2022-08-05T08:44:15;31.30;48.40
40758;DHT22;26462;47.384;19.218;2022-08-05T08:47:04;31.40;48.30
40758;DHT22;26462;47.384;19.218;2022-08-05T08:49:54;31.50;48.40
40758;DHT22;26462;47.384;19.218;2022-08-05T08:52:47;31.40;47.60
40758;DHT22;26462;47.384;19.218;2022-08-05T08:55:19;31.50;48.20
40758;DHT22;26462;47.384;19.218;2022-08-05T08:58:08;31.50;48.00
40758;DHT22;26462;47.384;19.218;2022-08-05T09:00:39;31.50;47.60
40758;DHT22;26462;47.384;19.218;2022-08-05T09:03:08;31.60;48.50
40758;DHT22;26462;47.384;19.218;2022-08-05T09:05:37;31.70;48.50
40758;DHT22;26462;47.384;19.218;2022-08-05T09:08:24;31.80;47.80
40758;DHT22;26462;47.384;19.218;2022-08-05T09:10:56;31.80;48.30
40758;DHT22;26462;47.384;19.218;2022-08-05T09:13:24;31.70;47.10
40758;DHT22;26462;47.384;19.218;2022-08-05T09:15:57;31.60;48.20
40758;DHT22;26462;47.384;19.218;2022-08-05T09:18:25;31.70;49.20
40758;DHT22;26462;47.384;19.218;2022-08-05T09:20:55;31.80;47.40
40758;DHT22;26462;47.384;19.218;2022-08-05T09:23:23;31.80;48.50
40758;DHT22;26462;47.384;19.218;2022-08-05T09:26:11;31.80;47.40
40758;DHT22;26462;47.384;19.218;2022-08-05T09:28:47;31.80;47.10
40758;DHT22;26462;47.384;19.218;2022-08-05T09:31:15;31.70;47.60
40758;DHT22;26462;47.384;19.218;2022-08-05T09:34:07;31.80;47.30
40758;DHT22;26462;47.384;19.218;2022-08-05T09:39:21;32.00;47.40
40758;DHT22;26462;47.384;19.218;2022-08-05T09:42:19;32.10;46.50
40758;DHT22;26462;47.384;19.218;2022-08-05T09:44:54;32.10;47.30
40758;DHT22;26462;47.384;19.218;2022-08-05T09:47:29;32.00;46.70
40758;DHT22;26462;47.384;19.218;2022-08-05T09:50:18;32.00;45.90
40758;DHT22;26462;47.384;19.218;2022-08-05T09:53:04;31.90;46.20
40758;DHT22;26462;47.384;19.218;2022-08-05T09:55:35;31.90;48.00
40758;DHT22;26462;47.384;19.218;2022-08-05T09:58:24;31.90;47.70
40758;DHT22;26462;47.384;19.218;2022-08-05T10:01:02;31.90;48.00
40758;DHT22;26462;47.384;19.218;2022-08-05T10:03:57;32.20;47.50
40758;DHT22;26462;47.384;19.218;2022-08-05T10:06:26;32.30;47.00
40758;DHT22;26462;47.384;19.218;2022-08-05T10:08:55;32.30;46.50
40758;DHT22;26462;47.384;19.218;2022-08-05T10:11:51;32.30;46.70
40758;DHT22;26462;47.384;19.218;2022-08-05T10:14:30;32.30;46.60
40758;DHT22;26462;47.384;19.218;2022-08-05T10:17:19;32.30;46.90
40758;DHT22;26462;47.384;19.218;2022-08-05T10:20:06;32.20;46.40
40758;DHT22;26462;47.384;19.218;2022-08-05T10:22:39;32.30;46.70
40758;DHT22;26462;47.384;19.218;2022-08-05T10:25:14;32.10;45.60
40758;DHT22;26462;47.384;19.218;2022-08-05T10:27:42;32.10;46.80
40758;DHT22;26462;47.384;19.218;2022-08-05T10:30:30;32.30;46.60
40758;DHT22;26462;47.384;19.218;2022-08-05T10:33:19;32.30;44.90
40758;DHT22;26462;47.384;19.218;2022-08-05T10:35:46;32.30;47.00
40758;DHT22;26462;47.384;19.218;2022-08-05T10:38:28;32.40;47.00
40758;DHT22;26462;47.384;19.218;2022-08-05T10:43:53;32.60;45.70
40758;DHT22;26462;47.384;19.218;2022-08-05T10:46:42;32.60;46.00
40758;DHT22;26462;47.384;19.218;2022-08-05T10:49:10;32.50;45.10
40758;DHT22;26462;47.384;19.218;2022-08-05T10:51:54;32.50;46.50
40758;DHT22;26462;47.384;19.218;2022-08-05T10:54:47;32.70;46.40
40758;DHT22;26462;47.384;19.218;2022-08-05T10:57:26;32.60;45.30
40758;DHT22;26462;47.384;19.218;2022-08-05T11:06:03;32.60;45.30
40758;DHT22;26462;47.384;19.218;2022-08-05T11:08:31;32.60;45.00
40758;DHT22;26462;47.384;19.218;2022-08-05T11:11:33;32.60;44.10
40758;DHT22;26462;47.384;19.218;2022-08-05T11:14:29;32.30;43.50
40758;DHT22;26462;47.384;19.218;2022-08-05T11:17:27;32.30;43.80
40758;DHT22;26462;47.384;19.218;2022-08-05T11:21:07;32.30;43.90
40758;DHT22;26462;47.384;19.218;2022-08-05T11:26:30;32.80;44.80
40758;DHT22;26462;47.384;19.218;2022-08-05T11:29:01;32.90;44.90
40758;DHT22;26462;47.384;19.218;2022-08-05T11:31:38;32.90;43.80
40758;DHT22;26462;47.384;19.218;2022-08-05T11:34:36;32.90;43.70
40758;DHT22;26462;47.384;19.218;2022-08-05T11:37:04;32.70;43.00
40758;DHT22;26462;47.384;19.218;2022-08-05T11:39:51;32.80;44.40
40758;DHT22;26462;47.384;19.218;2022-08-05T11:42:31;33.00;43.50
40758;DHT22;26462;47.384;19.218;2022-08-05T11:45:07;32.90;42.80
40758;DHT22;26462;47.384;19.218;2022-08-05T11:47:56;33.00;44.40
40758;DHT22;26462;47.384;19.218;2022-08-05T11:50:24;33.00;44.60
40758;DHT22;26462;47.384;19.218;2022-08-05T11:52:52;33.00;43.20
40758;DHT22;26462;47.384;19.218;2022-08-05T11:55:23;33.00;44.10
40758;DHT22;26462;47.384;19.218;2022-08-05T11:58:02;33.10;43.30
40758;DHT22;26462;47.384;19.218;2022-08-05T12:00:37;33.00;42.70
40758;DHT22;26462;47.384;19.218;2022-08-05T12:03:17;32.90;43.20
40758;DHT22;26462;47.384;19.218;2022-08-05T12:06:06;33.10;45.90
40758;DHT22;26462;47.384;19.218;2022-08-05T12:11:18;33.20;43.10
40758;DHT22;26462;47.384;19.218;2022-08-05T12:16:28;33.10;43.70
40758;DHT22;26462;47.384;19.218;2022-08-05T12:18:56;33.20;43.70
40758;DHT22;26462;47.384;19.218;2022-08-05T12:21:28;33.10;43.40
40758;DHT22;26462;47.384;19.218;2022-08-05T12:24:05;33.10;43.60
40758;DHT22;26462;47.384;19.218;2022-08-05T12:26:35;33.00;42.10
40758;DHT22;26462;47.384;19.218;2022-08-05T12:29:06;33.00;42.30
40758;DHT22;26462;47.384;19.218;2022-08-05T12:31:38;33.10;42.90
40758;DHT22;26462;47.384;19.218;2022-08-05T12:34:17;33.20;42.50
40758;DHT22;26462;47.384;19.218;2022-08-05T12:36:49;33.30;43.80
40758;DHT22;26462;47.384;19.218;2022-08-05T12:39:18;33.30;41.80
40758;DHT22;26462;47.384;19.218;2022-08-05T12:41:45;33.30;43.00
40758;DHT22;26462;47.384;19.218;2022-08-05T12:44:15;33.30;43.00
40758;DHT22;26462;47.384;19.218;2022-08-05T12:47:00;33.20;43.60
40758;DHT22;26462;47.384;19.218;2022-08-05T12:49:45;33.40;43.30
40758;DHT22;26462;47.384;19.218;2022-08-05T12:52:35;33.30;43.20
40758;DHT22;26462;47.384;19.218;2022-08-05T12:55:23;33.40;41.90
40758;DHT22;26462;47.384;19.218;2022-08-05T12:57:53;33.30;42.60
40758;DHT22;26462;47.384;19.218;2022-08-05T13:00:43;33.30;42.60
40758;DHT22;26462;47.384;19.218;2022-08-05T13:03:35;33.40;42.40
40758;DHT22;26462;47.384;19.218;2022-08-05T13:06:11;33.30;43.00
40758;DHT22;26462;47.384;19.218;2022-08-05T13:08:42;33.30;41.50
40758;DHT22;26462;47.384;19.218;2022-08-05T13:11:22;33.30;43.60
40758;DHT22;26462;47.384;19.218;2022-08-05T13:14:40;33.30;42.00
40758;DHT22;26462;47.384;19.218;2022-08-05T13:20:14;33.40;42.40
40758;DHT22;26462;47.384;19.218;2022-08-05T13:22:50;33.40;41.50
40758;DHT22;26462;47.384;19.218;2022-08-05T13:25:19;33.40;42.90
40758;DHT22;26462;47.384;19.218;2022-08-05T13:28:06;33.40;41.30
40758;DHT22;26462;47.384;19.218;2022-08-05T13:30:36;33.50;41.20
40758;DHT22;26462;47.384;19.218;2022-08-05T13:33:05;33.40;42.00
40758;DHT22;26462;47.384;19.218;2022-08-05T13:35:32;33.40;41.00
40758;DHT22;26462;47.384;19.218;2022-08-05T13:38:17;33.50;42.50
40758;DHT22;26462;47.384;19.218;2022-08-05T13:40:57;33.60;42.70
40758;DHT22;26462;47.384;19.218;2022-08-05T13:43:25;33.60;42.30
40758;DHT22;26462;47.384;19.218;2022-08-05T13:46:12;33.70;41.90
40758;DHT22;26462;47.384;19.218;2022-08-05T13:48:39;33.70;42.90
40758;DHT22;26462;47.384;19.218;2022-08-05T13:51:30;33.60;42.70
40758;DHT22;26462;47.384;19.218;2022-08-05T13:54:07;33.50;42.00
40758;DHT22;26462;47.384;19.218;2022-08-05T13:56:40;33.50;42.70
40758;DHT22;26462;47.384;19.218;2022-08-05T13:59:21;33.60;41.70
40758;DHT22;26462;47.384;19.218;2022-08-05T14:01:52;33.60;41.20
40758;DHT22;26462;47.384;19.218;2022-08-05T14:04:27;33.60;42.70
40758;DHT22;26462;47.384;19.218;2022-08-05T14:07:18;33.50;42.00
40758;DHT22;26462;47.384;19.218;2022-08-05T14:10:17;33.50;42.60
40758;DHT22;26462;47.384;19.218;2022-08-05T14:12:55;33.50;42.00
40758;DHT22;26462;47.384;19.218;2022-08-05T14:15:23;33.50;41.90
40758;DHT22;26462;47.384;19.218;2022-08-05T14:18:11;33.50;43.10
40758;DHT22;26462;47.384;19.218;2022-08-05T14:20:47;33.40;42.30
40758;DHT22;26462;47.384;19.218;2022-08-05T14:23:20;33.30;41.80
40758;DHT22;26462;47.384;19.218;2022-08-05T14:25:55;33.30;43.00
40758;DHT22;26462;47.384;19.218;2022-08-05T14:28:28;33.30;41.20
40758;DHT22;26462;47.384;19.218;2022-08-05T14:30:57;33.30;41.40
40758;DHT22;26462;47.384;19.218;2022-08-05T14:33:26;33.20;41.50
40758;DHT22;26462;47.384;19.218;2022-08-05T14:36:14;33.20;41.70
40758;DHT22;26462;47.384;19.218;2022-08-05T14:38:47;33.20;41.60
40758;DHT22;26462;47.384;19.218;2022-08-05T14:41:14;33.20;41.80
40758;DHT22;26462;47.384;19.218;2022-08-05T14:43:43;33.20;42.50
40758;DHT22;26462;47.384;19.218;2022-08-05T14:46:31;33.20;42.50
40758;DHT22;26462;47.384;19.218;2022-08-05T14:49:03;33.10;42.60
40758;DHT22;26462;47.384;19.218;2022-08-05T14:51:37;33.10;43.10
40758;DHT22;26462;47.384;19.218;2022-08-05T14:54:09;33.10;43.30
40758;DHT22;26462;47.384;19.218;2022-08-05T14:56:55;33.20;42.10
40758;DHT22;26462;47.384;19.218;2022-08-05T14:59:22;33.10;42.30
40758;DHT22;26462;47.384;19.218;2022-08-05T15:01:50;33.10;43.20
40758;DHT22;26462;47.384;19.218;2022-08-05T15:04:20;33.10;41.80
40758;DHT22;26462;47.384;19.218;2022-08-05T15:06:49;33.10;42.20
40758;DHT22;26462;47.384;19.218;2022-08-05T15:09:20;33.10;41.10
40758;DHT22;26462;47.384;19.218;2022-08-05T15:12:08;33.00;41.80
40758;DHT22;26462;47.384;19.218;2022-08-05T15:14:43;33.00;41.80
40758;DHT22;26462;47.384;19.218;2022-08-05T15:17:17;32.90;42.10
40758;DHT22;26462;47.384;19.218;2022-08-05T15:20:06;32.80;42.40
40758;DHT22;26462;47.384;19.218;2022-08-05T15:22:43;33.00;42.30
40758;DHT22;26462;47.384;19.218;2022-08-05T15:25:10;32.80;42.50
40758;DHT22;26462;47.384;19.218;2022-08-05T15:27:40;32.80;42.00
40758;DHT22;26462;47.384;19.218;2022-08-05T15:30:09;32.80;42.60
40758;DHT22;26462;47.384;19.218;2022-08-05T15:32:42;32.70;43.00
40758;DHT22;26462;47.384;19.218;2022-08-05T15:35:09;32.60;42.90
40758;DHT22;26462;47.384;19.218;2022-08-05T15:37:38;32.60;43.40
40758;DHT22;26462;47.384;19.218;2022-08-05T15:40:26;32.50;43.10
40758;DHT22;26462;47.384;19.218;2022-08-05T15:43:13;32.60;42.50
40758;DHT22;26462;47.384;19.218;2022-08-05T15:45:46;32.50;43.50
40758;DHT22;26462;47.384;19.218;2022-08-05T15:48:27;32.50;43.00
40758;DHT22;26462;47.384;19.218;2022-08-05T15:50:56;32.40;43.50
40758;DHT22;26462;47.384;19.218;2022-08-05T15:53:30;32.40;43.70
40758;DHT22;26462;47.384;19.218;2022-08-05T15:56:04;32.30;43.10
40758;DHT22;26462;47.384;19.218;2022-08-05T15:58:40;32.20;43.30
40758;DHT22;26462;47.384;19.218;2022-08-05T16:01:09;32.30;43.10
40758;DHT22;26462;47.384;19.218;2022-08-05T16:03:44;32.30;42.80
40758;DHT22;26462;47.384;19.218;2022-08-05T16:06:15;32.20;43.60
40758;DHT22;26462;47.384;19.218;2022-08-05T16:08:47;32.10;44.30
40758;DHT22;26462;47.384;19.218;2022-08-05T16:11:17;32.00;44.10
40758;DHT22;26462;47.384;19.218;2022-08-05T16:14:04;32.00;44.00
40758;DHT22;26462;47.384;19.218;2022-08-05T16:16:32;32.00;42.80
40758;DHT22;26462;47.384;19.218;2022-08-05T16:19:01;32.00;44.30
40758;DHT22;26462;47.384;19.218;2022-08-05T16:21:29;32.10;42.30
40758;DHT22;26462;47.384;19.218;2022-08-05T16:24:17;32.00;43.40
40758;DHT22;26462;47.384;19.218;2022-08-05T16:27:04;31.90;43.60
40758;DHT22;26462;47.384;19.218;2022-08-05T16:29:33;32.00;42.70
40758;DHT22;26462;47.384;19.218;2022-08-05T16:32:04;32.00;43.10
40758;DHT22;26462;47.384;19.218;2022-08-05T16:34:35;31.70;43.90
40758;DHT22;26462;47.384;19.218;2022-08-05T16:37:08;31.50;44.90
40758;DHT22;26462;47.384;19.218;2022-08-05T16:39:55;31.40;45.50
40758;DHT22;26462;47.384;19.218;2022-08-05T16:42:32;31.30;46.50
40758;DHT22;26462;47.384;19.218;2022-08-05T16:45:01;31.20;45.70
40758;DHT22;26462;47.384;19.218;2022-08-05T16:47:48;31.10;45.80
40758;DHT22;26462;47.384;19.218;2022-08-05T16:50:21;31.00;45.30